Coloma, MI (49038)

8:15 AM EDT on June 02, 2015 (GMT -0400)
East Paw Paw Lake | | Change Station
CLOSE
Current Station
Personal Weather Station
Location: Watervliet, MI
Elevation: 663 ft
Nearby Weather Stations

Elev 663 ft 42.21 °N, 86.25 °W | Updated 3 seconds ago

Clear
Clear
53.3 °F
Feels Like 53.3 °F
N
1.0
Wind Variable Wind from South
Gusts 1.0 mph

Today
High -- | Low -- °F
--% Chance of Precip.
Yesterday
High -- | Low -- °F
Precip. -- in
6:11 AM 9:15 PM
Full, 100% visible
Pressure 30.22 in
Visibility 10.0 miles
Clouds Clear
Dew Point 50 °F
Humidity 88%
Rainfall 0.00 in
Snow Depth Not available.
UV 1 out of 12
Pollen 9.10 out of 12
Air Quality Not available.
Flu Activity Sporadic
METAR KBEH 021153Z AUTO 00000KT 10SM CLR 11/09 A3021 RMK AO2 SLP232 T01060089 10106 20044 53010

More Conditions Fewer Conditions

Pressure 30.22 in
Visibility 10.0 miles
Clouds Clear
Dew Point 50 °F
Humidity 88%
Rainfall 0.00 in
Snow Depth Not available.
UV 1 out of 12
Pollen 9.10 out of 12
Air Quality Not available.
Flu Activity Sporadic
METAR KBEH 021153Z AUTO 00000KT 10SM CLR 11/09 A3021 RMK AO2 SLP232 T01060089 10106 20044 53010

More Conditions Fewer Conditions

10-Day Weather Forecast

Almanac

Astronomy

Jun. 02, 2015 Rise Set
Actual Time
Civil Twilight
Nautical Twilight
Astronomical Twilight
Moon
Length of Visible Light
Length of Day
Tomorrow will be .
, % of the Moon is Illuminated

Today's Extremes

State Highs State Lows

Community

WunderPhotos

Upload Photos

1,825,879 photos uploaded!

WunderBlogs® & News

Nearby

Air Quality

  Air Quality AQ Index Pollutant
Not available.

Snow Depth

Station Depth Elevation

Earthquake Activity

City Distance Mag. Time & Date
Minimum magnitude displayed is 2.5.

Coastal Water Temperatures

Place Temperature

Stations

Nearby Weather Stations

Station Location Temp. Windchill Dew Point Humidity Wind Precip. Elev Updated Type